createdAt,value
2022-11-23T00:01:21.111Z,98319.19
2022-11-23T00:03:50.999Z,98322.66
2022-11-23T00:06:21.939Z,98317.47
2022-11-23T00:08:51.143Z,98317.47
2022-11-23T00:11:21.214Z,98321.81
2022-11-23T00:13:49.805Z,98328.75
2022-11-23T00:16:20.129Z,98325.28
2022-11-23T00:18:48.949Z,98327.03
2022-11-23T00:21:18.879Z,98326.19
2022-11-23T00:23:48.803Z,98331.41
2022-11-23T00:26:18.734Z,98329.69
2022-11-23T00:28:47.532Z,98328.81
2022-11-23T00:31:17.506Z,98331.41
2022-11-23T00:33:50.276Z,98331.44
2022-11-23T00:36:19.326Z,98341.88
2022-11-23T00:38:49.960Z,98330.59
2022-11-23T00:41:21.401Z,98334.94
2022-11-23T00:43:50.071Z,98334.94
2022-11-23T00:46:20.838Z,98334.06
2022-11-23T00:48:50.493Z,98335.81
2022-11-23T00:51:21.392Z,98343.66
2022-11-23T00:53:53.028Z,98339.34
2022-11-23T00:56:21.879Z,98349.75
2022-11-23T00:58:51.216Z,98347.13
2022-11-23T01:01:21.157Z,98349.78
2022-11-23T01:03:52.513Z,98354.09
2022-11-23T01:06:23.018Z,98350.66
2022-11-23T01:08:55.800Z,98357.59
2022-11-23T01:11:25.620Z,98351.56
2022-11-23T01:13:55.506Z,98356.75
2022-11-23T01:16:26.893Z,98368.06
2022-11-23T01:18:55.291Z,98368.06
2022-11-23T01:21:25.966Z,98369.81
2022-11-23T01:23:55.865Z,98371.53
2022-11-23T01:26:24.837Z,98371.53
2022-11-23T01:28:53.446Z,98370.69
2022-11-23T01:31:26.582Z,98377.66
2022-11-23T01:33:56.513Z,98384.63
2022-11-23T01:36:26.760Z,98378.53
2022-11-23T01:38:57.306Z,98388.09
2022-11-23T01:41:29.507Z,98379.47
2022-11-23T01:43:58.564Z,98380.28
2022-11-23T01:46:27.168Z,98379.44
2022-11-23T01:48:58.599Z,98381.19
2022-11-23T01:51:30.060Z,98389.91
2022-11-23T01:54:03.250Z,98388.16
2022-11-23T01:56:38.184Z,98383.81
2022-11-23T01:59:14.108Z,98382.97
2022-11-23T02:01:42.831Z,98385.56
2022-11-23T02:04:15.741Z,98393.41
2022-11-23T02:06:49.009Z,98396.88
2022-11-23T02:09:19.575Z,98397.78
2022-11-23T02:11:48.023Z,98390.81
2022-11-23T02:14:23.085Z,98397.78
2022-11-23T02:16:51.883Z,98395.19
2022-11-23T02:19:34.791Z,98396.94
2022-11-23T02:22:08.943Z,98403.00
2022-11-23T02:24:46.280Z,98408.25
2022-11-23T02:27:17.486Z,98398.69
2022-11-23T02:29:46.996Z,98400.44
2022-11-23T02:32:20.714Z,98405.66
2022-11-23T02:34:49.081Z,98405.66
2022-11-23T02:37:18.674Z,98405.66
2022-11-23T02:39:50.424Z,98401.31
2022-11-23T02:42:20.356Z,98405.66
2022-11-23T02:44:59.127Z,98405.66
2022-11-23T02:47:27.583Z,98410.03
2022-11-23T02:49:56.041Z,98404.81
2022-11-23T02:52:24.471Z,98410.03
2022-11-23T02:54:52.820Z,98416.13
2022-11-23T02:57:22.518Z,98404.84
2022-11-23T02:59:51.234Z,98410.06
2022-11-23T03:02:19.612Z,98411.78
2022-11-23T03:04:48.597Z,98423.13
2022-11-23T03:07:20.127Z,98426.59
2022-11-23T03:09:50.441Z,98425.72
2022-11-23T03:12:21.770Z,98425.72
2022-11-23T03:14:50.168Z,98424.81
2022-11-23T03:17:19.609Z,98421.34
2022-11-23T03:19:47.930Z,98430.91
2022-11-23T03:22:16.525Z,98423.97
2022-11-23T03:24:45.248Z,98427.41
2022-11-23T03:27:17.401Z,98426.53
2022-11-23T03:29:48.470Z,98427.41
2022-11-23T03:32:21.063Z,98429.13
2022-11-23T03:34:52.731Z,98433.44
2022-11-23T03:37:22.805Z,98440.41
2022-11-23T03:39:51.241Z,98427.38
2022-11-23T03:42:57.911Z,98429.09
2022-11-23T03:45:27.866Z,98425.59
2022-11-23T03:47:56.238Z,98429.06
2022-11-23T03:50:24.709Z,98429.06
2022-11-23T03:52:53.101Z,98427.31
2022-11-23T03:55:21.533Z,98427.31
2022-11-23T03:57:50.262Z,98426.44
2022-11-23T04:00:18.960Z,98429.03
2022-11-23T04:02:49.274Z,98427.28
2022-11-23T04:05:52.487Z,98431.63
2022-11-23T04:08:43.431Z,98426.41
2022-11-23T04:11:18.002Z,98428.13
2022-11-23T04:13:49.610Z,98436.81
2022-11-23T04:16:19.523Z,98435.94
2022-11-23T04:18:49.259Z,98441.16
2022-11-23T04:21:18.361Z,98439.41
2022-11-23T04:23:46.955Z,98433.31
2022-11-23T04:26:16.796Z,98437.63
2022-11-23T04:28:47.644Z,98433.28
2022-11-23T04:31:16.729Z,98435.00
2022-11-23T04:33:55.835Z,98437.59
2022-11-23T04:36:26.896Z,98429.78
2022-11-23T04:38:55.813Z,98433.22
2022-11-23T04:41:34.621Z,98431.50
2022-11-23T04:44:04.041Z,98431.50
2022-11-23T04:46:32.777Z,98434.97
2022-11-23T04:49:03.159Z,98430.63
2022-11-23T04:51:32.055Z,98436.72
2022-11-23T04:54:01.413Z,98434.94
2022-11-23T04:56:32.979Z,98434.09
2022-11-23T04:59:01.338Z,98433.22
2022-11-23T05:01:29.921Z,98436.69
2022-11-23T05:04:38.204Z,98443.63
2022-11-23T05:07:07.671Z,98438.44
2022-11-23T05:09:37.507Z,98438.44
2022-11-23T05:12:14.289Z,98444.50
2022-11-23T05:14:43.347Z,98443.63
2022-11-23T05:17:13.553Z,98441.91
2022-11-23T05:19:45.404Z,98445.38
2022-11-23T05:22:14.578Z,98444.50
2022-11-23T05:24:44.318Z,98435.81
2022-11-23T05:27:17.228Z,98437.56
2022-11-23T05:29:46.643Z,98435.84
2022-11-23T05:32:15.815Z,98441.94
2022-11-23T05:34:45.853Z,98448.88
2022-11-23T05:37:17.022Z,98451.47
2022-11-23T05:39:57.858Z,98457.53
2022-11-23T05:42:26.752Z,98447.13
2022-11-23T05:44:58.209Z,98453.19
2022-11-23T05:47:35.491Z,98451.44
2022-11-23T05:50:09.792Z,98455.78
2022-11-23T05:52:42.389Z,98450.53
2022-11-23T05:55:10.797Z,98452.28
2022-11-23T05:57:39.638Z,98458.38
2022-11-23T06:00:10.546Z,98459.22
2022-11-23T06:02:47.373Z,98458.34
2022-11-23T06:05:17.447Z,98450.53
2022-11-23T06:07:53.951Z,98455.75
2022-11-23T06:10:27.754Z,98460.94
2022-11-23T06:13:03.335Z,98456.59
2022-11-23T06:15:32.112Z,98454.81
2022-11-23T06:18:01.843Z,98458.28
2022-11-23T06:20:39.806Z,98459.16
2022-11-23T06:23:08.118Z,98468.69
2022-11-23T06:25:38.417Z,98462.59
2022-11-23T06:28:12.441Z,98461.72
2022-11-23T06:30:47.068Z,98461.72
2022-11-23T06:33:15.755Z,98463.47
2022-11-23T06:35:55.750Z,98466.06
2022-11-23T06:38:26.359Z,98473.91
2022-11-23T06:41:05.421Z,98466.94
2022-11-23T06:43:33.976Z,98464.31
2022-11-23T06:46:06.114Z,98460.84
2022-11-23T06:48:36.269Z,98465.19
2022-11-23T06:51:07.329Z,98470.41
2022-11-23T06:53:37.877Z,98473.00
2022-11-23T06:56:09.593Z,98477.31
2022-11-23T06:58:38.138Z,98472.13
2022-11-23T07:01:11.934Z,98476.47
2022-11-23T07:03:46.054Z,98475.59
2022-11-23T07:06:25.511Z,98479.94
2022-11-23T07:08:56.992Z,98478.19
2022-11-23T07:11:45.503Z,98477.31
2022-11-23T07:14:13.994Z,98479.91
2022-11-23T07:16:46.518Z,98480.81
2022-11-23T07:19:15.696Z,98476.44
2022-11-23T07:21:45.955Z,98482.50
2022-11-23T07:24:14.331Z,98481.66
2022-11-23T07:26:42.851Z,98489.47
2022-11-23T07:29:11.846Z,98490.34
2022-11-23T07:31:40.529Z,98491.22
2022-11-23T07:34:10.990Z,98488.63
2022-11-23T07:36:39.586Z,98492.09
2022-11-23T07:39:09.397Z,98498.19
2022-11-23T07:41:38.265Z,98499.91
2022-11-23T07:44:29.164Z,98506.88
2022-11-23T07:46:58.092Z,98508.63
2022-11-23T07:49:26.397Z,98506.88
2022-11-23T07:51:56.140Z,98510.38
2022-11-23T07:54:25.834Z,98503.44
2022-11-23T07:56:54.110Z,98506.94
2022-11-23T07:59:22.427Z,98513.03
2022-11-23T08:01:55.631Z,98519.16
2022-11-23T08:04:27.101Z,98515.69
2022-11-23T08:06:55.448Z,98524.44
2022-11-23T08:09:25.144Z,98521.00
2022-11-23T08:11:53.437Z,98522.78
2022-11-23T08:14:21.853Z,98518.44
2022-11-23T08:16:50.831Z,98524.56
2022-11-23T08:19:19.447Z,98527.19
2022-11-23T08:21:47.733Z,98536.75
2022-11-23T08:24:16.070Z,98529.84
2022-11-23T08:26:46.101Z,98523.75
2022-11-23T08:29:14.414Z,98524.66
2022-11-23T08:31:43.100Z,98523.81
2022-11-23T08:34:11.452Z,98525.56
2022-11-23T08:36:39.794Z,98533.38
2022-11-23T08:39:08.728Z,98537.72
2022-11-23T08:41:36.970Z,98534.28
2022-11-23T08:44:08.384Z,98537.75
2022-11-23T08:46:36.856Z,98535.16
2022-11-23T08:49:05.877Z,98542.09
2022-11-23T08:51:34.957Z,98539.50
2022-11-23T08:54:03.297Z,98542.97
2022-11-23T08:56:31.616Z,98536.91
2022-11-23T08:58:59.966Z,98536.03
2022-11-23T09:01:29.731Z,98536.91
2022-11-23T09:03:58.247Z,98535.19
2022-11-23T09:06:29.136Z,98542.16
2022-11-23T09:08:57.658Z,98541.28
2022-11-23T09:11:26.512Z,98543.94
2022-11-23T09:13:55.145Z,98537.88
2022-11-23T09:16:23.446Z,98534.41
2022-11-23T09:18:56.663Z,98533.53
2022-11-23T09:21:29.330Z,98540.53
2022-11-23T09:23:57.792Z,98549.25
2022-11-23T09:26:26.884Z,98547.50
2022-11-23T09:28:55.154Z,98561.44
2022-11-23T09:31:23.851Z,98551.94
2022-11-23T09:33:54.718Z,98549.31
2022-11-23T09:36:23.660Z,98564.13
2022-11-23T09:38:56.523Z,98555.44
2022-11-23T09:41:51.517Z,98559.84
2022-11-23T09:44:26.380Z,98566.81
2022-11-23T09:47:08.413Z,98566.84
2022-11-23T09:49:46.536Z,98563.38
2022-11-23T09:52:19.226Z,98568.59
2022-11-23T09:54:49.631Z,98566.84
2022-11-23T09:57:22.716Z,98572.97
2022-11-23T09:59:57.158Z,98570.34
2022-11-23T10:02:28.770Z,98576.41
2022-11-23T10:05:00.934Z,98565.09
2022-11-23T10:07:48.225Z,98563.34
2022-11-23T10:10:32.410Z,98562.44
2022-11-23T10:13:14.872Z,98551.13
2022-11-23T10:16:00.669Z,98550.28
2022-11-23T10:18:37.361Z,98542.47
2022-11-23T10:21:18.338Z,98543.34
2022-11-23T10:23:55.306Z,98537.28
2022-11-23T10:26:29.857Z,98547.72
2022-11-23T10:29:07.720Z,98553.00
2022-11-23T10:31:36.781Z,98547.75
2022-11-23T10:34:11.854Z,98544.31
2022-11-23T10:36:42.173Z,98549.53
2022-11-23T10:39:21.056Z,98541.75
2022-11-23T10:41:50.732Z,98539.13
2022-11-23T10:44:32.749Z,98527.81
2022-11-23T10:47:01.560Z,98526.06
2022-11-23T10:49:32.981Z,98520.88
2022-11-23T10:52:05.488Z,98513.91
2022-11-23T10:54:36.947Z,98513.94
2022-11-23T10:57:23.411Z,98512.22
2022-11-23T10:59:59.015Z,98512.22
2022-11-23T11:02:27.900Z,98512.22
2022-11-23T11:05:15.476Z,98502.69
2022-11-23T11:07:45.228Z,98493.97
2022-11-23T11:10:34.971Z,98488.75
2022-11-23T11:13:03.573Z,98485.25
2022-11-23T11:15:31.881Z,98485.28
2022-11-23T11:18:00.615Z,98474.84
2022-11-23T11:20:34.454Z,98471.34
2022-11-23T11:23:17.323Z,98467.00
2022-11-23T11:25:46.364Z,98460.91
2022-11-23T11:28:25.603Z,98467.06
2022-11-23T11:31:05.154Z,98459.22
2022-11-23T11:33:42.099Z,98445.31
2022-11-23T11:36:17.003Z,98446.22
2022-11-23T11:39:15.008Z,98441.00
2022-11-23T11:41:41.817Z,98429.69
2022-11-23T11:44:18.367Z,98441.84
2022-11-23T11:46:50.992Z,98441.00
2022-11-23T11:49:25.371Z,98441.91
2022-11-23T11:51:59.376Z,98438.44
2022-11-23T11:54:36.090Z,98438.44
2022-11-23T11:57:08.370Z,98439.31
2022-11-23T11:59:42.844Z,98448.00
2022-11-23T12:02:19.327Z,98443.66
2022-11-23T12:04:55.045Z,98454.13
2022-11-23T12:07:28.534Z,98441.03
2022-11-23T12:10:05.836Z,98438.47
2022-11-23T12:12:36.833Z,98433.22
2022-11-23T12:15:20.499Z,98428.00
2022-11-23T12:18:31.543Z,98433.22
2022-11-23T12:21:04.798Z,98438.44
2022-11-23T12:23:49.032Z,98424.53
2022-11-23T12:26:27.581Z,98434.97
2022-11-23T12:29:17.071Z,98425.41
2022-11-23T12:31:50.524Z,98433.25
2022-11-23T12:34:37.899Z,98435.84
2022-11-23T12:37:30.642Z,98435.84
2022-11-23T12:40:15.177Z,98440.22
2022-11-23T12:42:48.263Z,98443.69
2022-11-23T12:45:23.656Z,98425.44
2022-11-23T12:48:01.075Z,98429.78
2022-11-23T12:50:36.370Z,98430.63
2022-11-23T12:53:20.833Z,98417.59
2022-11-23T12:55:54.295Z,98414.97
2022-11-23T12:58:27.061Z,98413.22
2022-11-23T13:01:00.785Z,98409.72
2022-11-23T13:04:01.009Z,98400.16
2022-11-23T13:10:13.986Z,98390.59
2022-11-23T13:13:01.685Z,98393.19
2022-11-23T13:15:48.092Z,98386.22
2022-11-23T13:18:28.383Z,98383.59
2022-11-23T13:21:09.704Z,98381.88
2022-11-23T13:23:39.522Z,98378.38
2022-11-23T13:26:15.726Z,98380.16
2022-11-23T13:28:44.958Z,98384.53
2022-11-23T13:31:24.721Z,98374.06
2022-11-23T13:33:55.774Z,98388.03
2022-11-23T13:37:11.243Z,98378.44
2022-11-23T13:40:06.475Z,98372.31
2022-11-23T13:42:36.060Z,98365.31
2022-11-23T13:45:25.509Z,98360.97
2022-11-23T13:48:41.223Z,98365.28
2022-11-23T13:51:05.856Z,98367.03
2022-11-23T13:53:36.615Z,98366.16
2022-11-23T13:56:24.028Z,98369.66
2022-11-23T13:58:55.313Z,98372.31
2022-11-23T14:02:01.508Z,98367.06
2022-11-23T14:04:33.021Z,98365.28
2022-11-23T14:07:06.680Z,98362.69
2022-11-23T14:09:50.411Z,98367.03
2022-11-23T14:12:26.797Z,98350.50
2022-11-23T14:14:59.562Z,98353.13
2022-11-23T14:17:55.876Z,98342.66
2022-11-23T14:20:53.529Z,98339.16
2022-11-23T14:23:51.075Z,98343.50
2022-11-23T14:26:34.799Z,98350.50
2022-11-23T14:29:41.408Z,98354.84
2022-11-23T14:32:22.673Z,98356.59
2022-11-23T14:34:58.408Z,98356.59
2022-11-23T14:37:34.304Z,98347.88
2022-11-23T14:40:11.664Z,98351.34
2022-11-23T14:42:45.062Z,98354.84
2022-11-23T14:45:15.462Z,98354.81
2022-11-23T14:47:44.082Z,98358.31
2022-11-23T14:50:23.234Z,98360.06
2022-11-23T14:52:54.210Z,98362.66
2022-11-23T14:55:25.490Z,98364.38
2022-11-23T14:57:59.306Z,98367.00
2022-11-23T15:00:32.659Z,98367.84
2022-11-23T15:03:34.486Z,98374.81
2022-11-23T15:06:02.707Z,98387.00
2022-11-23T15:08:41.456Z,98390.50
2022-11-23T15:11:15.252Z,98398.34
2022-11-23T15:13:45.324Z,98410.50
2022-11-23T15:16:15.944Z,98421.88
2022-11-23T15:18:45.038Z,98419.22
2022-11-23T15:21:26.630Z,98424.47
2022-11-23T15:23:59.996Z,98431.41
2022-11-23T15:29:36.803Z,98431.41
2022-11-23T15:32:30.621Z,98445.34
2022-11-23T15:35:02.680Z,98445.31
2022-11-23T15:37:32.405Z,98452.28
2022-11-23T15:40:02.364Z,98454.88
2022-11-23T15:42:30.962Z,98458.34
2022-11-23T15:44:59.324Z,98460.94
2022-11-23T15:47:30.912Z,98464.41
2022-11-23T15:50:02.744Z,98468.75
2022-11-23T15:52:35.800Z,98477.44
2022-11-23T15:55:10.469Z,98480.03
2022-11-23T15:57:40.472Z,98487.84
2022-11-23T16:00:21.847Z,98492.16
2022-11-23T16:02:50.708Z,98499.09
2022-11-23T16:05:22.188Z,98506.84
2022-11-23T16:07:52.707Z,98508.56
2022-11-23T16:10:25.842Z,98520.72
2022-11-23T16:12:55.706Z,98527.63
2022-11-23T16:15:41.852Z,98531.94
2022-11-23T16:18:22.459Z,98538.84
2022-11-23T16:20:53.603Z,98545.78
2022-11-23T16:23:24.575Z,98548.34
2022-11-23T16:26:02.674Z,98557.88
2022-11-23T16:28:33.042Z,98560.44
2022-11-23T16:31:01.987Z,98563.88
2022-11-23T16:33:31.223Z,98563.00
2022-11-23T16:35:59.564Z,98567.31
2022-11-23T16:38:27.924Z,98568.19
2022-11-23T16:40:56.410Z,98575.09
2022-11-23T16:43:26.186Z,98574.22
2022-11-23T16:45:55.537Z,98575.91
2022-11-23T16:48:41.200Z,98587.22
2022-11-23T16:51:14.100Z,98590.66
2022-11-23T16:54:11.888Z,98583.69
2022-11-23T16:56:32.070Z,98585.41
2022-11-23T16:59:01.929Z,98593.16
2022-11-23T17:01:32.454Z,98588.78
2022-11-23T17:04:01.049Z,98585.28
2022-11-23T17:06:29.496Z,98593.97
2022-11-23T17:09:06.156Z,98593.09
2022-11-23T17:11:38.714Z,98600.91
2022-11-23T17:14:18.162Z,98604.38
2022-11-23T17:16:48.233Z,98602.59
2022-11-23T17:19:17.764Z,98607.81
2022-11-23T17:21:47.272Z,98615.59
2022-11-23T17:24:15.951Z,98621.69
2022-11-23T17:26:46.425Z,98640.78
2022-11-23T17:29:19.475Z,98637.25
2022-11-23T17:31:48.457Z,98641.63
2022-11-23T17:34:17.231Z,98640.72
2022-11-23T17:36:47.045Z,98639.00
2022-11-23T17:39:18.963Z,98634.66
2022-11-23T17:41:48.009Z,98639.00
2022-11-23T17:44:18.426Z,98640.75
2022-11-23T17:46:47.949Z,98641.63
2022-11-23T17:49:19.927Z,98645.94
2022-11-23T17:51:48.203Z,98645.03
2022-11-23T17:54:16.489Z,98655.44
2022-11-23T17:56:44.801Z,98666.75
2022-11-23T17:59:13.341Z,98668.44
2022-11-23T18:01:42.981Z,98658.03
2022-11-23T18:04:11.640Z,98664.94
2022-11-23T18:06:40.090Z,98672.72
2022-11-23T18:09:11.829Z,98663.16
2022-11-23T18:11:40.189Z,98659.66
2022-11-23T18:14:09.019Z,98661.41
2022-11-23T18:16:37.435Z,98670.06
2022-11-23T18:19:07.175Z,98677.00
2022-11-23T18:21:35.672Z,98677.84
2022-11-23T18:24:04.827Z,98683.91
2022-11-23T18:26:33.442Z,98680.41
2022-11-23T18:29:02.045Z,98683.00
2022-11-23T18:31:30.428Z,98688.22
2022-11-23T18:33:58.990Z,98693.41
2022-11-23T18:36:29.012Z,98692.53
2022-11-23T18:38:57.937Z,98697.75
2022-11-23T18:41:26.480Z,98702.94
2022-11-23T18:43:54.811Z,98697.75
2022-11-23T18:46:23.299Z,98702.06
2022-11-23T18:48:52.098Z,98709.03
2022-11-23T18:51:20.382Z,98716.84
2022-11-23T18:53:51.371Z,98713.38
2022-11-23T18:56:20.423Z,98724.66
2022-11-23T18:58:48.920Z,98726.41
2022-11-23T19:01:19.175Z,98722.06
2022-11-23T19:03:49.370Z,98733.34
2022-11-23T19:06:19.652Z,98729.88
2022-11-23T19:08:53.406Z,98740.28
2022-11-23T19:11:23.452Z,98748.97
2022-11-23T19:13:54.157Z,98753.31
2022-11-23T19:16:24.419Z,98757.66
2022-11-23T19:18:56.388Z,98767.25
2022-11-23T19:21:26.426Z,98762.91
2022-11-23T19:23:57.659Z,98767.25
2022-11-23T19:26:27.163Z,98768.13
2022-11-23T19:28:55.869Z,98767.28
2022-11-23T19:31:26.446Z,98767.28
2022-11-23T19:33:57.772Z,98775.09
2022-11-23T19:36:26.461Z,98779.44
2022-11-23T19:38:56.624Z,98776.84
2022-11-23T19:41:29.874Z,98779.44
2022-11-23T19:44:00.313Z,98785.53
2022-11-23T19:46:29.830Z,98788.13
2022-11-23T19:48:58.834Z,98779.44
2022-11-23T19:51:27.934Z,98792.47
2022-11-23T19:53:59.972Z,98788.13
2022-11-23T19:56:29.786Z,98801.97
2022-11-23T19:58:59.621Z,98804.59
2022-11-23T20:01:31.685Z,98808.06
2022-11-23T20:04:08.613Z,98810.66
2022-11-23T20:06:39.394Z,98815.88
2022-11-23T20:09:11.257Z,98815.00
2022-11-23T20:11:41.027Z,98821.88
2022-11-23T20:14:12.187Z,98828.81
2022-11-23T20:16:41.101Z,98833.13
2022-11-23T20:19:10.494Z,98839.16
2022-11-23T20:21:39.055Z,98827.88
2022-11-23T20:24:12.062Z,98834.78
2022-11-23T20:26:41.383Z,98846.88
2022-11-23T20:29:10.340Z,98843.38
2022-11-23T20:31:39.410Z,98834.66
2022-11-23T20:34:10.095Z,98853.75
2022-11-23T20:36:39.747Z,98858.97
2022-11-23T20:39:11.849Z,98850.22
2022-11-23T20:41:40.680Z,98850.22
2022-11-23T20:44:12.581Z,98854.53
2022-11-23T20:49:30.955Z,98853.63
2022-11-23T20:51:59.810Z,98863.16
2022-11-23T20:54:29.898Z,98857.97
2022-11-23T20:57:00.190Z,98857.94
2022-11-23T20:59:29.463Z,98858.78
2022-11-23T21:01:58.095Z,98862.25
2022-11-23T21:04:27.225Z,98867.41
2022-11-23T21:06:55.637Z,98866.50
2022-11-23T21:09:24.101Z,98873.44
2022-11-23T21:12:11.749Z,98878.69
2022-11-23T21:14:40.368Z,98886.50
2022-11-23T21:17:09.067Z,98872.59
2022-11-23T21:19:39.846Z,98885.59
2022-11-23T21:22:10.526Z,98887.31
2022-11-23T21:24:39.247Z,98893.38
2022-11-23T21:27:13.600Z,98902.91
2022-11-23T21:29:44.003Z,98896.78
2022-11-23T21:32:14.624Z,98902.84
2022-11-23T21:34:43.386Z,98906.28
2022-11-23T21:37:12.514Z,98901.09
2022-11-23T21:39:41.259Z,98913.28
2022-11-23T21:42:11.128Z,98912.41
2022-11-23T21:44:39.659Z,98914.16
2022-11-23T21:47:08.287Z,98908.94
2022-11-23T21:49:36.853Z,98909.78
2022-11-23T21:52:05.446Z,98906.28
2022-11-23T21:54:33.996Z,98922.78
2022-11-23T21:57:02.560Z,98927.13
2022-11-23T21:59:32.633Z,98937.53
2022-11-23T22:02:01.303Z,98931.47
2022-11-23T22:04:29.998Z,98935.78
2022-11-23T22:06:58.476Z,98940.94
2022-11-23T22:09:27.097Z,98947.06
2022-11-23T22:11:55.491Z,98954.88
2022-11-23T22:14:23.950Z,98957.44
2022-11-23T22:16:56.554Z,98957.44
2022-11-23T22:19:24.881Z,98961.81
2022-11-23T22:21:53.396Z,98963.56
2022-11-23T22:24:22.533Z,98969.69
2022-11-23T22:26:51.017Z,98980.16
2022-11-23T22:29:19.394Z,98976.72
2022-11-23T22:31:47.802Z,98984.59
2022-11-23T22:34:17.782Z,98983.78
2022-11-23T22:36:46.090Z,98982.97
2022-11-23T22:39:14.370Z,98975.19
2022-11-23T22:41:42.794Z,98976.09
2022-11-23T22:44:11.631Z,98982.19
2022-11-23T22:46:40.645Z,98984.78
2022-11-23T22:49:08.982Z,98996.94
2022-11-23T22:51:38.798Z,98993.47
2022-11-23T22:54:07.261Z,98998.69
2022-11-23T22:56:35.528Z,99003.03
2022-11-23T22:59:04.181Z,99006.50
2022-11-23T23:01:32.715Z,99016.03
2022-11-23T23:04:02.701Z,99016.03
2022-11-23T23:06:33.952Z,99012.56
2022-11-23T23:09:05.560Z,99016.97
2022-11-23T23:11:35.268Z,99016.09
2022-11-23T23:14:03.669Z,99023.97
2022-11-23T23:16:34.897Z,99015.28
2022-11-23T23:19:03.482Z,99022.22
2022-11-23T23:21:31.939Z,99024.00
2022-11-23T23:24:02.095Z,99030.97
2022-11-23T23:26:31.639Z,99032.75
2022-11-23T23:29:01.464Z,99040.56
2022-11-23T23:31:30.605Z,99042.34
2022-11-23T23:34:00.509Z,99039.75
2022-11-23T23:36:29.459Z,99037.19
2022-11-23T23:38:58.440Z,99045.88
2022-11-23T23:41:26.892Z,99042.34
2022-11-23T23:43:56.651Z,99048.47
2022-11-23T23:46:25.361Z,99058.88
2022-11-23T23:48:53.728Z,99054.50
2022-11-23T23:51:23.841Z,99060.59
2022-11-23T23:53:52.741Z,99064.00
2022-11-23T23:56:22.697Z,99065.75
2022-11-23T23:58:51.376Z,99062.22
